sensor_id;sensor_type;location;lat;lon;timestamp;pressure;altitude;pressure_sealevel;temperature;humidity
18022;BME280;9136;48.822;7.966;2023-05-19T00:02:06;100765.22;;;10.43;100.00
18022;BME280;9136;48.822;7.966;2023-05-19T00:04:54;100731.44;;;10.27;100.00
18022;BME280;9136;48.822;7.966;2023-05-19T00:07:43;100758.38;;;10.36;100.00
18022;BME280;9136;48.822;7.966;2023-05-19T00:10:34;100770.47;;;10.43;100.00
18022;BME280;9136;48.822;7.966;2023-05-19T00:13:22;100755.88;;;10.29;100.00
18022;BME280;9136;48.822;7.966;2023-05-19T00:16:12;100769.63;;;10.41;100.00
18022;BME280;9136;48.822;7.966;2023-05-19T00:19:01;100742.78;;;10.28;100.00
18022;BME280;9136;48.822;7.966;2023-05-19T00:21:49;100733.22;;;10.25;100.00
18022;BME280;9136;48.822;7.966;2023-05-19T00:24:37;100727.28;;;10.16;100.00
18022;BME280;9136;48.822;7.966;2023-05-19T00:27:26;100725.56;;;10.15;100.00
18022;BME280;9136;48.822;7.966;2023-05-19T00:30:14;100737.75;;;10.17;100.00
18022;BME280;9136;48.822;7.966;2023-05-19T00:33:02;100736.84;;;10.18;100.00
18022;BME280;9136;48.822;7.966;2023-05-19T00:35:50;100755.16;;;10.23;100.00
18022;BME280;9136;48.822;7.966;2023-05-19T00:38:38;100744.72;;;10.18;100.00
18022;BME280;9136;48.822;7.966;2023-05-19T00:41:27;100755.09;;;10.26;100.00
18022;BME280;9136;48.822;7.966;2023-05-19T00:44:17;100740.41;;;10.16;100.00
18022;BME280;9136;48.822;7.966;2023-05-19T00:47:05;100738.72;;;10.13;100.00
18022;BME280;9136;48.822;7.966;2023-05-19T00:49:53;100760.47;;;10.18;100.00
18022;BME280;9136;48.822;7.966;2023-05-19T00:52:41;100764.91;;;10.16;100.00
18022;BME280;9136;48.822;7.966;2023-05-19T00:55:30;100723.28;;;9.99;100.00
18022;BME280;9136;48.822;7.966;2023-05-19T00:58:18;100735.34;;;10.08;100.00
18022;BME280;9136;48.822;7.966;2023-05-19T01:01:08;100725.91;;;9.99;100.00
18022;BME280;9136;48.822;7.966;2023-05-19T01:03:57;100746.41;;;10.22;100.00
18022;BME280;9136;48.822;7.966;2023-05-19T01:06:45;100747.41;;;10.17;100.00
18022;BME280;9136;48.822;7.966;2023-05-19T01:09:33;100723.13;;;10.07;100.00
18022;BME280;9136;48.822;7.966;2023-05-19T01:12:21;100715.25;;;10.07;100.00
18022;BME280;9136;48.822;7.966;2023-05-19T01:15:10;100711.78;;;10.05;100.00
18022;BME280;9136;48.822;7.966;2023-05-19T01:18:04;100735.94;;;10.19;100.00
18022;BME280;9136;48.822;7.966;2023-05-19T01:21:03;100715.25;;;10.07;100.00
18022;BME280;9136;48.822;7.966;2023-05-19T01:24:07;100738.75;;;10.12;100.00
18022;BME280;9136;48.822;7.966;2023-05-19T01:27:25;100715.38;;;10.01;100.00
18022;BME280;9136;48.822;7.966;2023-05-19T01:30:32;100705.88;;;9.95;100.00
18022;BME280;9136;48.822;7.966;2023-05-19T01:33:22;100701.53;;;9.94;100.00
18022;BME280;9136;48.822;7.966;2023-05-19T01:36:11;100739.59;;;10.14;100.00
18022;BME280;9136;48.822;7.966;2023-05-19T01:39:01;100702.53;;;9.89;100.00
18022;BME280;9136;48.822;7.966;2023-05-19T01:41:49;100719.69;;;10.03;100.00
18022;BME280;9136;48.822;7.966;2023-05-19T01:44:38;100712.75;;;10.01;100.00
18022;BME280;9136;48.822;7.966;2023-05-19T01:47:28;100730.09;;;10.08;100.00
18022;BME280;9136;48.822;7.966;2023-05-19T01:50:16;100734.53;;;10.06;100.00
18022;BME280;9136;48.822;7.966;2023-05-19T01:53:04;100699.13;;;9.85;100.00
18022;BME280;9136;48.822;7.966;2023-05-19T01:55:54;100721.59;;;9.97;100.00
18022;BME280;9136;48.822;7.966;2023-05-19T01:58:44;100720.06;;;9.87;100.00
18022;BME280;9136;48.822;7.966;2023-05-19T02:01:36;100721.75;;;9.89;100.00
18022;BME280;9136;48.822;7.966;2023-05-19T02:04:35;100721.63;;;9.95;100.00
18022;BME280;9136;48.822;7.966;2023-05-19T02:07:30;100740.75;;;10.00;100.00
18022;BME280;9136;48.822;7.966;2023-05-19T02:10:26;100733.91;;;9.95;100.00
18022;BME280;9136;48.822;7.966;2023-05-19T02:13:19;100730.25;;;10.00;100.00
18022;BME280;9136;48.822;7.966;2023-05-19T02:16:10;100739.09;;;9.96;100.00
18022;BME280;9136;48.822;7.966;2023-05-19T02:19:00;100736.41;;;9.99;100.00
18022;BME280;9136;48.822;7.966;2023-05-19T02:21:49;100710.53;;;9.83;100.00
18022;BME280;9136;48.822;7.966;2023-05-19T02:24:37;100724.41;;;9.88;100.00
18022;BME280;9136;48.822;7.966;2023-05-19T02:27:26;100752.94;;;10.04;100.00
18022;BME280;9136;48.822;7.966;2023-05-19T02:30:15;100726.97;;;9.91;100.00
18022;BME280;9136;48.822;7.966;2023-05-19T02:33:02;100751.25;;;10.00;100.00
18022;BME280;9136;48.822;7.966;2023-05-19T02:35:52;100733.03;;;9.93;100.00
18022;BME280;9136;48.822;7.966;2023-05-19T02:38:42;100727.91;;;9.88;100.00
18022;BME280;9136;48.822;7.966;2023-05-19T02:41:30;100743.63;;;9.90;100.00
18022;BME280;9136;48.822;7.966;2023-05-19T02:44:18;100734.22;;;9.80;100.00
18022;BME280;9136;48.822;7.966;2023-05-19T02:47:06;100725.41;;;9.82;100.00
18022;BME280;9136;48.822;7.966;2023-05-19T02:49:53;100718.50;;;9.78;100.00
18022;BME280;9136;48.822;7.966;2023-05-19T02:52:41;100709.84;;;9.73;100.00
18022;BME280;9136;48.822;7.966;2023-05-19T02:55:31;100706.53;;;9.66;100.00
18022;BME280;9136;48.822;7.966;2023-05-19T02:58:19;100718.63;;;9.72;100.00
18022;BME280;9136;48.822;7.966;2023-05-19T03:01:07;100716.94;;;9.69;100.00
18022;BME280;9136;48.822;7.966;2023-05-19T03:03:56;100738.63;;;9.78;100.00
18022;BME280;9136;48.822;7.966;2023-05-19T03:06:44;100715.28;;;9.65;100.00
18022;BME280;9136;48.822;7.966;2023-05-19T03:09:32;100727.44;;;9.69;100.00
18022;BME280;9136;48.822;7.966;2023-05-19T03:12:21;100724.22;;;9.57;100.00
18022;BME280;9136;48.822;7.966;2023-05-19T03:15:10;100700.81;;;9.46;100.00
18022;BME280;9136;48.822;7.966;2023-05-19T03:18:00;100715.47;;;9.55;100.00
18022;BME280;9136;48.822;7.966;2023-05-19T03:20:47;100700.94;;;9.40;100.00
18022;BME280;9136;48.822;7.966;2023-05-19T03:23:35;100708.75;;;9.43;100.00
18022;BME280;9136;48.822;7.966;2023-05-19T03:26:23;100696.78;;;9.30;100.00
18022;BME280;9136;48.822;7.966;2023-05-19T03:29:13;100703.78;;;9.29;100.00
18022;BME280;9136;48.822;7.966;2023-05-19T03:32:01;100714.94;;;9.39;100.00
18022;BME280;9136;48.822;7.966;2023-05-19T03:34:49;100703.75;;;9.31;100.00
18022;BME280;9136;48.822;7.966;2023-05-19T03:37:38;100693.41;;;9.23;100.00
18022;BME280;9136;48.822;7.966;2023-05-19T03:40:26;100729.84;;;9.35;100.00
18022;BME280;9136;48.822;7.966;2023-05-19T03:43:14;100738.59;;;9.36;100.00
18022;BME280;9136;48.822;7.966;2023-05-19T03:46:04;100720.31;;;9.33;100.00
18022;BME280;9136;48.822;7.966;2023-05-19T03:48:51;100724.69;;;9.32;100.00
18022;BME280;9136;48.822;7.966;2023-05-19T03:51:39;100745.47;;;9.41;100.00
18022;BME280;9136;48.822;7.966;2023-05-19T03:54:28;100713.53;;;9.21;100.00
18022;BME280;9136;48.822;7.966;2023-05-19T03:57:16;100716.94;;;9.28;100.00
18022;BME280;9136;48.822;7.966;2023-05-19T04:00:05;100745.63;;;9.34;100.00
18022;BME280;9136;48.822;7.966;2023-05-19T04:02:57;100713.59;;;9.20;100.00
18022;BME280;9136;48.822;7.966;2023-05-19T04:05:46;100749.75;;;9.45;100.00
18022;BME280;9136;48.822;7.966;2023-05-19T04:08:34;100741.34;;;9.30;100.00
18022;BME280;9136;48.822;7.966;2023-05-19T04:11:21;100726.59;;;9.24;100.00
18022;BME280;9136;48.822;7.966;2023-05-19T04:14:09;100748.13;;;9.40;100.00
18022;BME280;9136;48.822;7.966;2023-05-19T04:16:57;100723.75;;;9.35;100.00
18022;BME280;9136;48.822;7.966;2023-05-19T04:19:46;100728.09;;;9.36;100.00
18022;BME280;9136;48.822;7.966;2023-05-19T04:22:34;100739.50;;;9.33;100.00
18022;BME280;9136;48.822;7.966;2023-05-19T04:25:22;100741.13;;;9.40;100.00
18022;BME280;9136;48.822;7.966;2023-05-19T04:28:10;100751.41;;;9.51;100.00
18022;BME280;9136;48.822;7.966;2023-05-19T04:30:58;100726.34;;;9.38;100.00
18022;BME280;9136;48.822;7.966;2023-05-19T04:33:46;100748.72;;;9.56;100.00
18022;BME280;9136;48.822;7.966;2023-05-19T04:36:37;100740.91;;;9.51;100.00
18022;BME280;9136;48.822;7.966;2023-05-19T04:39:24;100726.16;;;9.47;100.00
18022;BME280;9136;48.822;7.966;2023-05-19T04:42:12;100761.63;;;9.65;100.00
18022;BME280;9136;48.822;7.966;2023-05-19T04:45:05;100764.91;;;9.74;100.00
18022;BME280;9136;48.822;7.966;2023-05-19T04:47:54;100748.28;;;9.77;100.00
18022;BME280;9136;48.822;7.966;2023-05-19T04:50:43;100746.34;;;9.85;100.00
18022;BME280;9136;48.822;7.966;2023-05-19T04:53:35;100748.75;;;9.96;100.00
18022;BME280;9136;48.822;7.966;2023-05-19T04:56:25;100754.00;;;9.96;100.00
18022;BME280;9136;48.822;7.966;2023-05-19T04:59:14;100764.97;;;10.13;100.00
18022;BME280;9136;48.822;7.966;2023-05-19T05:02:02;100750.03;;;10.17;100.00
18022;BME280;9136;48.822;7.966;2023-05-19T05:04:51;100779.38;;;10.36;100.00
18022;BME280;9136;48.822;7.966;2023-05-19T05:07:52;100759.16;;;10.39;100.00
18022;BME280;9136;48.822;7.966;2023-05-19T05:10:42;100766.75;;;10.51;100.00
18022;BME280;9136;48.822;7.966;2023-05-19T05:13:30;100776.13;;;10.63;100.00
18022;BME280;9136;48.822;7.966;2023-05-19T05:16:19;100745.69;;;10.54;100.00
18022;BME280;9136;48.822;7.966;2023-05-19T05:19:07;100766.94;;;10.79;100.00
18022;BME280;9136;48.822;7.966;2023-05-19T05:21:55;100777.16;;;10.92;100.00
18022;BME280;9136;48.822;7.966;2023-05-19T05:24:46;100764.88;;;10.92;100.00
18022;BME280;9136;48.822;7.966;2023-05-19T05:27:38;100747.59;;;10.83;100.00
18022;BME280;9136;48.822;7.966;2023-05-19T05:30:29;100779.38;;;11.07;100.00
18022;BME280;9136;48.822;7.966;2023-05-19T05:33:18;100757.34;;;11.12;100.00
18022;BME280;9136;48.822;7.966;2023-05-19T05:36:07;100783.25;;;11.26;100.00
18022;BME280;9136;48.822;7.966;2023-05-19T05:38:57;100761.97;;;11.35;100.00
18022;BME280;9136;48.822;7.966;2023-05-19T05:41:47;100755.00;;;11.34;100.00
18022;BME280;9136;48.822;7.966;2023-05-19T05:44:37;100750.34;;;11.44;100.00
18022;BME280;9136;48.822;7.966;2023-05-19T05:47:25;100743.00;;;11.55;100.00
18022;BME280;9136;48.822;7.966;2023-05-19T05:50:14;100754.94;;;11.67;100.00
18022;BME280;9136;48.822;7.966;2023-05-19T05:53:05;100754.84;;;11.71;100.00
18022;BME280;9136;48.822;7.966;2023-05-19T05:55:53;100766.81;;;11.83;100.00
18022;BME280;9136;48.822;7.966;2023-05-19T05:58:50;100746.44;;;11.90;100.00
18022;BME280;9136;48.822;7.966;2023-05-19T06:01:40;100747.72;;;12.04;100.00
18022;BME280;9136;48.822;7.966;2023-05-19T06:04:31;100771.84;;;12.20;99.84
18022;BME280;9136;48.822;7.966;2023-05-19T06:07:18;100733.91;;;11.98;98.85
18022;BME280;9136;48.822;7.966;2023-05-19T06:10:07;100741.44;;;12.10;100.00
18022;BME280;9136;48.822;7.966;2023-05-19T06:12:55;100754.78;;;12.04;100.00
18022;BME280;9136;48.822;7.966;2023-05-19T06:15:43;100745.38;;;11.95;100.00
18022;BME280;9136;48.822;7.966;2023-05-19T06:18:32;100755.09;;;11.93;98.33
18022;BME280;9136;48.822;7.966;2023-05-19T06:21:20;100737.03;;;11.81;100.00
18022;BME280;9136;48.822;7.966;2023-05-19T06:24:08;100745.06;;;11.75;99.63
18022;BME280;9136;48.822;7.966;2023-05-19T06:26:55;100728.91;;;11.58;100.00
18022;BME280;9136;48.822;7.966;2023-05-19T06:29:43;100738.53;;;11.59;100.00
18022;BME280;9136;48.822;7.966;2023-05-19T06:32:31;100734.16;;;11.58;100.00
18022;BME280;9136;48.822;7.966;2023-05-19T06:35:20;100738.72;;;11.53;100.00
18022;BME280;9136;48.822;7.966;2023-05-19T06:38:08;100760.16;;;11.70;100.00
18022;BME280;9136;48.822;7.966;2023-05-19T06:40:56;100758.19;;;11.76;100.00
18022;BME280;9136;48.822;7.966;2023-05-19T06:43:44;100756.38;;;11.80;100.00
18022;BME280;9136;48.822;7.966;2023-05-19T06:46:32;100747.69;;;11.75;100.00
18022;BME280;9136;48.822;7.966;2023-05-19T06:49:19;100732.38;;;11.60;98.15
18022;BME280;9136;48.822;7.966;2023-05-19T06:52:09;100737.44;;;11.66;100.00
18022;BME280;9136;48.822;7.966;2023-05-19T06:54:56;100743.28;;;11.75;100.00
18022;BME280;9136;48.822;7.966;2023-05-19T06:57:44;100761.16;;;11.95;100.00
18022;BME280;9136;48.822;7.966;2023-05-19T07:00:32;100738.38;;;11.94;97.14
18022;BME280;9136;48.822;7.966;2023-05-19T07:03:20;100760.66;;;12.12;100.00
18022;BME280;9136;48.822;7.966;2023-05-19T07:06:08;100768.94;;;12.29;98.97
18022;BME280;9136;48.822;7.966;2023-05-19T07:08:59;100761.69;;;12.36;97.87
18022;BME280;9136;48.822;7.966;2023-05-19T07:11:47;100742.53;;;12.31;94.11
18022;BME280;9136;48.822;7.966;2023-05-19T07:14:35;100723.91;;;12.37;97.92
18022;BME280;9136;48.822;7.966;2023-05-19T07:17:25;100736.19;;;12.65;100.00
18022;BME280;9136;48.822;7.966;2023-05-19T07:20:13;100743.81;;;12.72;100.00
18022;BME280;9136;48.822;7.966;2023-05-19T07:23:01;100724.00;;;12.60;97.77
18022;BME280;9136;48.822;7.966;2023-05-19T07:25:54;100723.56;;;12.74;100.00
18022;BME280;9136;48.822;7.966;2023-05-19T07:28:42;100741.38;;;12.93;96.83
18022;BME280;9136;48.822;7.966;2023-05-19T07:31:30;100748.44;;;13.17;100.00
18022;BME280;9136;48.822;7.966;2023-05-19T07:34:18;100736.00;;;13.22;100.00
18022;BME280;9136;48.822;7.966;2023-05-19T07:37:07;100729.94;;;13.18;93.43
18022;BME280;9136;48.822;7.966;2023-05-19T07:39:54;100730.63;;;13.25;90.34
18022;BME280;9136;48.822;7.966;2023-05-19T07:42:44;100725.88;;;13.35;88.67
18022;BME280;9136;48.822;7.966;2023-05-19T07:45:31;100728.75;;;13.52;91.91
18022;BME280;9136;48.822;7.966;2023-05-19T07:48:19;100724.09;;;13.59;88.25
18022;BME280;9136;48.822;7.966;2023-05-19T07:51:08;100728.25;;;13.66;86.78
18022;BME280;9136;48.822;7.966;2023-05-19T07:53:56;100711.41;;;13.68;90.13
18022;BME280;9136;48.822;7.966;2023-05-19T07:56:44;100716.00;;;13.87;84.74
18022;BME280;9136;48.822;7.966;2023-05-19T07:59:33;100724.44;;;13.96;89.29
18022;BME280;9136;48.822;7.966;2023-05-19T08:02:21;100689.38;;;13.93;87.03
18022;BME280;9136;48.822;7.966;2023-05-19T08:05:09;100707.50;;;14.24;96.36
18022;BME280;9136;48.822;7.966;2023-05-19T08:07:57;100700.25;;;14.29;96.48
18022;BME280;9136;48.822;7.966;2023-05-19T08:10:45;100713.84;;;14.42;91.17
18022;BME280;9136;48.822;7.966;2023-05-19T08:13:32;100719.28;;;14.37;87.90
18022;BME280;9136;48.822;7.966;2023-05-19T08:16:22;100719.34;;;14.59;90.61
18022;BME280;9136;48.822;7.966;2023-05-19T08:19:11;100699.13;;;14.56;82.61
18022;BME280;9136;48.822;7.966;2023-05-19T08:21:58;100724.44;;;14.84;84.96
18022;BME280;9136;48.822;7.966;2023-05-19T08:24:46;100700.44;;;14.68;79.32
18022;BME280;9136;48.822;7.966;2023-05-19T08:27:35;100690.34;;;14.56;87.56
18022;BME280;9136;48.822;7.966;2023-05-19T08:30:22;100694.88;;;14.74;82.48
18022;BME280;9136;48.822;7.966;2023-05-19T08:33:12;100724.13;;;14.92;89.57
18022;BME280;9136;48.822;7.966;2023-05-19T08:36:00;100694.09;;;14.93;83.22
18022;BME280;9136;48.822;7.966;2023-05-19T08:38:48;100694.88;;;15.35;91.64
18022;BME280;9136;48.822;7.966;2023-05-19T08:41:35;100701.25;;;15.50;78.13
18022;BME280;9136;48.822;7.966;2023-05-19T08:44:23;100701.69;;;15.60;82.63
18022;BME280;9136;48.822;7.966;2023-05-19T08:47:11;100699.50;;;15.69;85.16
18022;BME280;9136;48.822;7.966;2023-05-19T08:50:04;100682.13;;;15.64;85.31
18022;BME280;9136;48.822;7.966;2023-05-19T08:52:55;100681.13;;;15.66;86.59
18022;BME280;9136;48.822;7.966;2023-05-19T08:55:51;100670.88;;;15.78;81.91
18022;BME280;9136;48.822;7.966;2023-05-19T08:58:45;100698.38;;;16.13;78.01
18022;BME280;9136;48.822;7.966;2023-05-19T09:01:33;100683.41;;;16.12;78.71
18022;BME280;9136;48.822;7.966;2023-05-19T09:04:23;100671.44;;;16.03;79.34
18022;BME280;9136;48.822;7.966;2023-05-19T09:07:14;100692.78;;;16.36;76.51
18022;BME280;9136;48.822;7.966;2023-05-19T09:10:03;100693.34;;;16.43;79.91
18022;BME280;9136;48.822;7.966;2023-05-19T09:12:52;100667.00;;;16.21;72.57
18022;BME280;9136;48.822;7.966;2023-05-19T09:15:41;100675.66;;;16.07;74.19
18022;BME280;9136;48.822;7.966;2023-05-19T09:18:28;100686.50;;;16.20;72.20
18022;BME280;9136;48.822;7.966;2023-05-19T09:21:18;100669.03;;;16.16;73.44
18022;BME280;9136;48.822;7.966;2023-05-19T09:24:08;100677.91;;;16.34;77.63
18022;BME280;9136;48.822;7.966;2023-05-19T09:26:56;100681.50;;;16.67;79.86
18022;BME280;9136;48.822;7.966;2023-05-19T09:29:44;100686.28;;;16.95;77.18
18022;BME280;9136;48.822;7.966;2023-05-19T09:32:34;100654.25;;;16.82;64.49
18022;BME280;9136;48.822;7.966;2023-05-19T09:35:21;100647.91;;;16.85;77.89
18022;BME280;9136;48.822;7.966;2023-05-19T09:38:16;100664.66;;;17.36;71.57
18022;BME280;9136;48.822;7.966;2023-05-19T09:41:07;100666.06;;;17.76;67.61
18022;BME280;9136;48.822;7.966;2023-05-19T09:43:56;100675.53;;;17.64;65.52
18022;BME280;9136;48.822;7.966;2023-05-19T09:46:47;100651.34;;;17.37;68.43
18022;BME280;9136;48.822;7.966;2023-05-19T09:49:35;100650.91;;;17.45;64.65
18022;BME280;9136;48.822;7.966;2023-05-19T09:52:23;100673.25;;;17.90;63.89
18022;BME280;9136;48.822;7.966;2023-05-19T09:55:12;100669.09;;;18.31;65.16
18022;BME280;9136;48.822;7.966;2023-05-19T09:58:02;100639.38;;;17.93;55.89
18022;BME280;9136;48.822;7.966;2023-05-19T10:00:52;100661.66;;;18.22;58.82
18022;BME280;9136;48.822;7.966;2023-05-19T10:03:41;100653.69;;;18.22;57.57
18022;BME280;9136;48.822;7.966;2023-05-19T10:06:29;100656.72;;;18.46;59.17
18022;BME280;9136;48.822;7.966;2023-05-19T10:09:21;100627.84;;;18.70;59.22
18022;BME280;9136;48.822;7.966;2023-05-19T10:12:10;100629.97;;;19.08;56.33
18022;BME280;9136;48.822;7.966;2023-05-19T10:15:00;100643.00;;;18.98;54.18
18022;BME280;9136;48.822;7.966;2023-05-19T10:17:49;100642.69;;;18.58;52.34
18022;BME280;9136;48.822;7.966;2023-05-19T10:20:38;100650.38;;;18.49;57.10
18022;BME280;9136;48.822;7.966;2023-05-19T10:23:26;100638.94;;;18.17;55.26
18022;BME280;9136;48.822;7.966;2023-05-19T10:26:14;100646.75;;;18.20;57.34
18022;BME280;9136;48.822;7.966;2023-05-19T10:29:04;100642.91;;;18.10;58.07
18022;BME280;9136;48.822;7.966;2023-05-19T10:31:54;100642.72;;;18.43;60.46
18022;BME280;9136;48.822;7.966;2023-05-19T10:35:00;100632.81;;;18.76;57.38
18022;BME280;9136;48.822;7.966;2023-05-19T10:38:01;100633.59;;;18.93;52.96
18022;BME280;9136;48.822;7.966;2023-05-19T10:40:56;100640.88;;;18.59;53.64
18022;BME280;9136;48.822;7.966;2023-05-19T10:43:53;100629.84;;;18.51;54.88
18022;BME280;9136;48.822;7.966;2023-05-19T10:46:42;100638.88;;;18.78;54.30
18022;BME280;9136;48.822;7.966;2023-05-19T10:49:33;100637.31;;;19.04;54.23
18022;BME280;9136;48.822;7.966;2023-05-19T10:52:23;100623.22;;;18.88;51.95
18022;BME280;9136;48.822;7.966;2023-05-19T10:55:14;100619.03;;;18.98;51.74
18022;BME280;9136;48.822;7.966;2023-05-19T10:58:38;100628.28;;;19.64;51.65
18022;BME280;9136;48.822;7.966;2023-05-19T11:01:31;100625.53;;;20.19;49.97
18022;BME280;9136;48.822;7.966;2023-05-19T11:04:44;100644.88;;;20.63;47.84
18022;BME280;9136;48.822;7.966;2023-05-19T11:07:32;100635.75;;;20.40;48.17
18022;BME280;9136;48.822;7.966;2023-05-19T11:10:22;100633.03;;;20.00;48.72
18022;BME280;9136;48.822;7.966;2023-05-19T11:13:18;100626.03;;;20.12;46.55
18022;BME280;9136;48.822;7.966;2023-05-19T11:16:06;100605.41;;;20.01;50.24
18022;BME280;9136;48.822;7.966;2023-05-19T11:18:54;100597.25;;;20.17;47.24
18022;BME280;9136;48.822;7.966;2023-05-19T11:21:48;100616.78;;;20.44;48.98
18022;BME280;9136;48.822;7.966;2023-05-19T11:24:41;100630.91;;;20.46;45.67
18022;BME280;9136;48.822;7.966;2023-05-19T11:27:32;100606.44;;;20.52;47.82
18022;BME280;9136;48.822;7.966;2023-05-19T11:30:22;100628.50;;;19.88;44.80
18022;BME280;9136;48.822;7.966;2023-05-19T11:33:11;100608.41;;;19.41;47.09
18022;BME280;9136;48.822;7.966;2023-05-19T11:35:59;100607.84;;;18.93;47.93
18022;BME280;9136;48.822;7.966;2023-05-19T11:38:49;100596.50;;;18.90;50.03
18022;BME280;9136;48.822;7.966;2023-05-19T11:41:38;100607.34;;;18.72;48.59
18022;BME280;9136;48.822;7.966;2023-05-19T11:44:26;100615.78;;;18.65;52.46
18022;BME280;9136;48.822;7.966;2023-05-19T11:47:15;100602.25;;;18.38;51.54
18022;BME280;9136;48.822;7.966;2023-05-19T11:50:05;100618.19;;;18.53;51.04
18022;BME280;9136;48.822;7.966;2023-05-19T11:52:54;100629.53;;;18.71;50.37
18022;BME280;9136;48.822;7.966;2023-05-19T11:55:46;100608.44;;;18.68;53.04
18022;BME280;9136;48.822;7.966;2023-05-19T11:58:36;100589.75;;;18.98;54.23
18022;BME280;9136;48.822;7.966;2023-05-19T12:01:23;100592.44;;;19.12;51.24
18022;BME280;9136;48.822;7.966;2023-05-19T12:04:12;100624.25;;;19.00;48.80
18022;BME280;9136;48.822;7.966;2023-05-19T12:07:00;100621.78;;;18.82;53.41
18022;BME280;9136;48.822;7.966;2023-05-19T12:09:48;100636.97;;;18.80;52.13
18022;BME280;9136;48.822;7.966;2023-05-19T12:12:37;100615.13;;;18.90;53.63
18022;BME280;9136;48.822;7.966;2023-05-19T12:15:25;100619.44;;;19.21;53.21
18022;BME280;9136;48.822;7.966;2023-05-19T12:18:13;100629.69;;;19.55;50.96
18022;BME280;9136;48.822;7.966;2023-05-19T12:21:01;100614.38;;;19.59;50.52
18022;BME280;9136;48.822;7.966;2023-05-19T12:23:49;100625.56;;;19.78;53.30
18022;BME280;9136;48.822;7.966;2023-05-19T12:26:37;100608.88;;;19.33;51.47
18022;BME280;9136;48.822;7.966;2023-05-19T12:29:30;100624.84;;;19.19;50.40
18022;BME280;9136;48.822;7.966;2023-05-19T12:32:22;100630.84;;;19.37;55.28
18022;BME280;9136;48.822;7.966;2023-05-19T12:35:10;100611.31;;;19.36;51.82
18022;BME280;9136;48.822;7.966;2023-05-19T12:38:01;100626.09;;;19.97;50.47
18022;BME280;9136;48.822;7.966;2023-05-19T12:40:51;100606.22;;;20.55;49.96
18022;BME280;9136;48.822;7.966;2023-05-19T12:43:39;100636.72;;;20.78;48.98
18022;BME280;9136;48.822;7.966;2023-05-19T12:46:31;100635.69;;;20.54;49.60
18022;BME280;9136;48.822;7.966;2023-05-19T12:49:19;100624.19;;;19.99;49.29
18022;BME280;9136;48.822;7.966;2023-05-19T12:52:07;100636.97;;;19.94;50.64
18022;BME280;9136;48.822;7.966;2023-05-19T12:54:58;100615.69;;;19.66;51.05
18022;BME280;9136;48.822;7.966;2023-05-19T12:57:48;100608.44;;;19.68;52.55
18022;BME280;9136;48.822;7.966;2023-05-19T13:00:40;100625.91;;;20.40;51.27
18022;BME280;9136;48.822;7.966;2023-05-19T13:03:30;100628.59;;;20.93;47.51
18022;BME280;9136;48.822;7.966;2023-05-19T13:06:18;100618.88;;;20.92;47.41
18022;BME280;9136;48.822;7.966;2023-05-19T13:09:05;100616.09;;;20.80;49.89
18022;BME280;9136;48.822;7.966;2023-05-19T13:11:53;100620.25;;;21.10;48.28
18022;BME280;9136;48.822;7.966;2023-05-19T13:14:41;100598.47;;;20.78;46.46
18022;BME280;9136;48.822;7.966;2023-05-19T13:17:29;100601.69;;;20.96;46.88
18022;BME280;9136;48.822;7.966;2023-05-19T13:20:19;100611.81;;;20.78;46.33
18022;BME280;9136;48.822;7.966;2023-05-19T13:23:08;100612.03;;;21.38;47.55
18022;BME280;9136;48.822;7.966;2023-05-19T13:25:56;100626.75;;;21.57;46.15
18022;BME280;9136;48.822;7.966;2023-05-19T13:28:44;100615.06;;;22.07;45.20
18022;BME280;9136;48.822;7.966;2023-05-19T13:31:32;100592.25;;;22.25;43.78
18022;BME280;9136;48.822;7.966;2023-05-19T13:34:21;100602.72;;;22.28;44.70
18022;BME280;9136;48.822;7.966;2023-05-19T13:37:11;100599.38;;;22.84;44.89
18022;BME280;9136;48.822;7.966;2023-05-19T13:39:58;100588.38;;;22.65;42.46
18022;BME280;9136;48.822;7.966;2023-05-19T13:42:46;100599.31;;;22.03;45.58
18022;BME280;9136;48.822;7.966;2023-05-19T13:45:34;100597.00;;;22.22;45.31
18022;BME280;9136;48.822;7.966;2023-05-19T13:48:22;100593.44;;;21.74;45.39
18022;BME280;9136;48.822;7.966;2023-05-19T13:51:10;100595.94;;;21.51;46.28
18022;BME280;9136;48.822;7.966;2023-05-19T13:54:00;100600.19;;;21.04;48.20
18022;BME280;9136;48.822;7.966;2023-05-19T13:56:48;100596.00;;;21.26;47.59
18022;BME280;9136;48.822;7.966;2023-05-19T13:59:35;100584.09;;;21.79;45.56
18022;BME280;9136;48.822;7.966;2023-05-19T14:02:23;100598.59;;;22.24;43.79
18022;BME280;9136;48.822;7.966;2023-05-19T14:05:11;100586.78;;;22.03;43.86
18022;BME280;9136;48.822;7.966;2023-05-19T14:07:58;100582.91;;;22.20;44.02
18022;BME280;9136;48.822;7.966;2023-05-19T14:10:50;100594.56;;;23.00;43.11
18022;BME280;9136;48.822;7.966;2023-05-19T14:13:39;100571.00;;;22.35;43.79
18022;BME280;9136;48.822;7.966;2023-05-19T14:16:29;100575.31;;;22.49;45.06
18022;BME280;9136;48.822;7.966;2023-05-19T14:19:17;100583.47;;;23.38;41.19
18022;BME280;9136;48.822;7.966;2023-05-19T14:22:05;100579.66;;;23.75;42.12
18022;BME280;9136;48.822;7.966;2023-05-19T14:24:53;100582.28;;;24.50;39.39
18022;BME280;9136;48.822;7.966;2023-05-19T14:27:42;100578.25;;;25.37;39.68
18022;BME280;9136;48.822;7.966;2023-05-19T14:30:30;100579.25;;;25.06;40.10
18022;BME280;9136;48.822;7.966;2023-05-19T14:33:19;100567.47;;;24.03;39.85
18022;BME280;9136;48.822;7.966;2023-05-19T14:36:07;100567.50;;;23.14;41.82
18022;BME280;9136;48.822;7.966;2023-05-19T14:38:55;100552.22;;;22.59;43.16
18022;BME280;9136;48.822;7.966;2023-05-19T14:41:43;100558.03;;;22.18;42.82
18022;BME280;9136;48.822;7.966;2023-05-19T14:44:32;100558.69;;;21.37;46.64
18022;BME280;9136;48.822;7.966;2023-05-19T14:47:20;100556.53;;;20.40;49.45
18022;BME280;9136;48.822;7.966;2023-05-19T14:50:08;100559.00;;;19.50;49.22
18022;BME280;9136;48.822;7.966;2023-05-19T14:52:55;100582.63;;;18.99;53.39
18022;BME280;9136;48.822;7.966;2023-05-19T14:55:43;100570.44;;;18.80;50.06